sensor_id;sensor_type;location;lat;lon;timestamp;P1;durP1;ratioP1;P2;durP2;ratioP2
60344;SDS011;46188;52.324;8.032;2022-08-19T00:01:22;4.72;;;4.03;;
60344;SDS011;46188;52.324;8.032;2022-08-19T00:03:48;3.70;;;3.40;;
60344;SDS011;46188;52.324;8.032;2022-08-19T00:06:14;6.40;;;3.30;;
60344;SDS011;46188;52.324;8.032;2022-08-19T00:08:40;5.30;;;4.07;;
60344;SDS011;46188;52.324;8.032;2022-08-19T00:11:06;5.68;;;4.05;;
60344;SDS011;46188;52.324;8.032;2022-08-19T00:13:32;4.68;;;4.03;;
60344;SDS011;46188;52.324;8.032;2022-08-19T00:15:59;7.10;;;4.78;;
60344;SDS011;46188;52.324;8.032;2022-08-19T00:18:25;6.07;;;4.65;;
60344;SDS011;46188;52.324;8.032;2022-08-19T00:20:51;5.38;;;3.70;;
60344;SDS011;46188;52.324;8.032;2022-08-19T00:23:16;5.13;;;3.75;;
60344;SDS011;46188;52.324;8.032;2022-08-19T00:25:42;5.00;;;3.72;;
60344;SDS011;46188;52.324;8.032;2022-08-19T00:28:07;6.22;;;3.67;;
60344;SDS011;46188;52.324;8.032;2022-08-19T00:30:33;5.45;;;3.95;;
60344;SDS011;46188;52.324;8.032;2022-08-19T00:32:58;4.32;;;3.70;;
60344;SDS011;46188;52.324;8.032;2022-08-19T00:35:24;5.05;;;3.70;;
60344;SDS011;46188;52.324;8.032;2022-08-19T00:37:52;8.27;;;4.80;;
60344;SDS011;46188;52.324;8.032;2022-08-19T00:40:17;6.68;;;4.05;;
60344;SDS011;46188;52.324;8.032;2022-08-19T00:42:44;3.95;;;3.55;;
60344;SDS011;46188;52.324;8.032;2022-08-19T00:45:14;5.88;;;4.07;;
60344;SDS011;46188;52.324;8.032;2022-08-19T00:47:43;5.38;;;4.00;;
60344;SDS011;46188;52.324;8.032;2022-08-19T00:50:10;5.32;;;4.25;;
60344;SDS011;46188;52.324;8.032;2022-08-19T00:52:44;5.35;;;3.78;;
60344;SDS011;46188;52.324;8.032;2022-08-19T00:55:18;4.72;;;4.20;;
60344;SDS011;46188;52.324;8.032;2022-08-19T00:57:51;6.32;;;4.50;;
60344;SDS011;46188;52.324;8.032;2022-08-19T01:00:20;7.38;;;4.00;;
60344;SDS011;46188;52.324;8.032;2022-08-19T01:02:48;5.85;;;4.43;;
60344;SDS011;46188;52.324;8.032;2022-08-19T01:05:18;5.15;;;4.57;;
60344;SDS011;46188;52.324;8.032;2022-08-19T01:07:46;6.37;;;4.50;;
60344;SDS011;46188;52.324;8.032;2022-08-19T01:10:16;4.70;;;3.78;;
60344;SDS011;46188;52.324;8.032;2022-08-19T01:12:45;4.97;;;3.97;;
60344;SDS011;46188;52.324;8.032;2022-08-19T01:15:12;4.45;;;3.72;;
60344;SDS011;46188;52.324;8.032;2022-08-19T01:17:40;6.18;;;4.03;;
60344;SDS011;46188;52.324;8.032;2022-08-19T01:20:16;5.18;;;3.92;;
60344;SDS011;46188;52.324;8.032;2022-08-19T01:22:47;4.60;;;3.67;;
60344;SDS011;46188;52.324;8.032;2022-08-19T01:25:16;5.10;;;4.35;;
60344;SDS011;46188;52.324;8.032;2022-08-19T01:27:45;5.55;;;3.90;;
60344;SDS011;46188;52.324;8.032;2022-08-19T01:30:18;4.72;;;3.97;;
60344;SDS011;46188;52.324;8.032;2022-08-19T01:32:47;5.15;;;4.05;;
60344;SDS011;46188;52.324;8.032;2022-08-19T01:35:13;5.78;;;4.30;;
60344;SDS011;46188;52.324;8.032;2022-08-19T01:37:47;5.75;;;4.15;;
60344;SDS011;46188;52.324;8.032;2022-08-19T01:40:16;5.82;;;3.97;;
60344;SDS011;46188;52.324;8.032;2022-08-19T01:42:45;5.85;;;4.47;;
60344;SDS011;46188;52.324;8.032;2022-08-19T01:45:12;6.47;;;4.63;;
60344;SDS011;46188;52.324;8.032;2022-08-19T01:47:38;5.53;;;4.95;;
60344;SDS011;46188;52.324;8.032;2022-08-19T01:50:05;6.82;;;5.30;;
60344;SDS011;46188;52.324;8.032;2022-08-19T01:52:34;5.95;;;5.10;;
60344;SDS011;46188;52.324;8.032;2022-08-19T01:55:00;8.45;;;6.00;;
60344;SDS011;46188;52.324;8.032;2022-08-19T01:57:26;7.28;;;6.20;;
60344;SDS011;46188;52.324;8.032;2022-08-19T01:59:52;7.75;;;5.22;;
60344;SDS011;46188;52.324;8.032;2022-08-19T02:02:18;7.20;;;5.18;;
60344;SDS011;46188;52.324;8.032;2022-08-19T02:04:44;6.78;;;5.13;;
60344;SDS011;46188;52.324;8.032;2022-08-19T02:07:10;6.70;;;5.22;;
60344;SDS011;46188;52.324;8.032;2022-08-19T02:09:36;7.35;;;5.05;;
60344;SDS011;46188;52.324;8.032;2022-08-19T02:12:02;5.15;;;4.43;;
60344;SDS011;46188;52.324;8.032;2022-08-19T02:14:29;6.10;;;4.85;;
60344;SDS011;46188;52.324;8.032;2022-08-19T02:16:54;5.68;;;4.47;;
60344;SDS011;46188;52.324;8.032;2022-08-19T02:19:20;5.80;;;5.15;;
60344;SDS011;46188;52.324;8.032;2022-08-19T02:21:45;7.15;;;5.97;;
60344;SDS011;46188;52.324;8.032;2022-08-19T02:24:10;6.30;;;5.20;;
60344;SDS011;46188;52.324;8.032;2022-08-19T02:26:37;5.80;;;4.65;;
60344;SDS011;46188;52.324;8.032;2022-08-19T02:29:02;6.85;;;5.30;;
60344;SDS011;46188;52.324;8.032;2022-08-19T02:31:28;4.93;;;4.43;;
60344;SDS011;46188;52.324;8.032;2022-08-19T02:33:54;6.72;;;5.32;;
60344;SDS011;46188;52.324;8.032;2022-08-19T02:36:21;7.90;;;5.40;;
60344;SDS011;46188;52.324;8.032;2022-08-19T02:38:47;6.63;;;5.32;;
60344;SDS011;46188;52.324;8.032;2022-08-19T02:41:20;5.72;;;4.38;;
60344;SDS011;46188;52.324;8.032;2022-08-19T02:43:54;5.80;;;4.82;;
60344;SDS011;46188;52.324;8.032;2022-08-19T02:46:23;4.57;;;4.18;;
60344;SDS011;46188;52.324;8.032;2022-08-19T02:48:52;4.88;;;4.22;;
60344;SDS011;46188;52.324;8.032;2022-08-19T02:51:26;4.95;;;3.90;;
60344;SDS011;46188;52.324;8.032;2022-08-19T02:54:00;6.43;;;4.95;;
60344;SDS011;46188;52.324;8.032;2022-08-19T02:56:26;6.13;;;4.90;;
60344;SDS011;46188;52.324;8.032;2022-08-19T02:58:53;5.13;;;4.53;;
60344;SDS011;46188;52.324;8.032;2022-08-19T03:01:23;5.40;;;4.72;;
60344;SDS011;46188;52.324;8.032;2022-08-19T03:03:53;6.30;;;4.90;;
60344;SDS011;46188;52.324;8.032;2022-08-19T03:06:20;7.57;;;5.50;;
60344;SDS011;46188;52.324;8.032;2022-08-19T03:08:47;7.18;;;5.15;;
60344;SDS011;46188;52.324;8.032;2022-08-19T03:13:48;7.53;;;5.95;;
60344;SDS011;46188;52.324;8.032;2022-08-19T03:16:17;6.97;;;5.35;;
60344;SDS011;46188;52.324;8.032;2022-08-19T03:18:44;7.82;;;5.68;;
60344;SDS011;46188;52.324;8.032;2022-08-19T03:21:09;7.47;;;6.20;;
60344;SDS011;46188;52.324;8.032;2022-08-19T03:23:41;7.80;;;5.90;;
60344;SDS011;46188;52.324;8.032;2022-08-19T03:26:06;9.00;;;5.85;;
60344;SDS011;46188;52.324;8.032;2022-08-19T03:28:32;8.27;;;5.90;;
60344;SDS011;46188;52.324;8.032;2022-08-19T03:31:10;7.68;;;6.45;;
60344;SDS011;46188;52.324;8.032;2022-08-19T03:33:37;11.85;;;10.13;;
60344;SDS011;46188;52.324;8.032;2022-08-19T03:36:08;10.02;;;9.02;;
60344;SDS011;46188;52.324;8.032;2022-08-19T03:38:37;6.53;;;5.70;;
60344;SDS011;46188;52.324;8.032;2022-08-19T03:41:05;9.13;;;5.70;;
60344;SDS011;46188;52.324;8.032;2022-08-19T03:43:38;6.63;;;5.47;;
60344;SDS011;46188;52.324;8.032;2022-08-19T03:46:09;7.40;;;5.53;;
60344;SDS011;46188;52.324;8.032;2022-08-19T03:48:36;7.28;;;5.68;;
60344;SDS011;46188;52.324;8.032;2022-08-19T03:51:04;8.48;;;6.75;;
60344;SDS011;46188;52.324;8.032;2022-08-19T03:53:30;8.85;;;6.57;;
60344;SDS011;46188;52.324;8.032;2022-08-19T03:55:57;6.93;;;5.90;;
60344;SDS011;46188;52.324;8.032;2022-08-19T03:58:25;6.90;;;6.00;;
60344;SDS011;46188;52.324;8.032;2022-08-19T04:00:53;7.53;;;5.78;;
60344;SDS011;46188;52.324;8.032;2022-08-19T04:03:20;7.80;;;6.15;;
60344;SDS011;46188;52.324;8.032;2022-08-19T04:05:46;7.10;;;5.05;;
60344;SDS011;46188;52.324;8.032;2022-08-19T04:08:11;7.35;;;6.13;;
60344;SDS011;46188;52.324;8.032;2022-08-19T04:10:37;5.85;;;4.97;;
60344;SDS011;46188;52.324;8.032;2022-08-19T04:13:04;7.90;;;5.78;;
60344;SDS011;46188;52.324;8.032;2022-08-19T04:15:31;5.68;;;4.60;;
60344;SDS011;46188;52.324;8.032;2022-08-19T04:18:03;8.88;;;5.57;;
60344;SDS011;46188;52.324;8.032;2022-08-19T04:20:31;7.03;;;5.10;;
60344;SDS011;46188;52.324;8.032;2022-08-19T04:22:56;7.32;;;5.10;;
60344;SDS011;46188;52.324;8.032;2022-08-19T04:25:22;5.22;;;4.35;;
60344;SDS011;46188;52.324;8.032;2022-08-19T04:27:47;9.30;;;4.63;;
60344;SDS011;46188;52.324;8.032;2022-08-19T04:30:13;6.30;;;5.03;;
60344;SDS011;46188;52.324;8.032;2022-08-19T04:32:39;5.78;;;4.85;;
60344;SDS011;46188;52.324;8.032;2022-08-19T04:35:08;7.78;;;6.22;;
60344;SDS011;46188;52.324;8.032;2022-08-19T04:37:34;7.35;;;5.03;;
60344;SDS011;46188;52.324;8.032;2022-08-19T04:39:59;7.57;;;4.93;;
60344;SDS011;46188;52.324;8.032;2022-08-19T04:42:43;10.02;;;6.90;;
60344;SDS011;46188;52.324;8.032;2022-08-19T04:45:10;8.27;;;5.93;;
60344;SDS011;46188;52.324;8.032;2022-08-19T04:47:39;8.35;;;6.55;;
60344;SDS011;46188;52.324;8.032;2022-08-19T04:50:07;10.13;;;5.88;;
60344;SDS011;46188;52.324;8.032;2022-08-19T04:52:37;9.15;;;6.60;;
60344;SDS011;46188;52.324;8.032;2022-08-19T04:55:07;8.32;;;6.95;;
60344;SDS011;46188;52.324;8.032;2022-08-19T04:57:33;8.93;;;6.07;;
60344;SDS011;46188;52.324;8.032;2022-08-19T04:59:58;9.10;;;6.70;;
60344;SDS011;46188;52.324;8.032;2022-08-19T05:02:24;9.85;;;7.32;;
60344;SDS011;46188;52.324;8.032;2022-08-19T05:04:50;7.65;;;5.80;;
60344;SDS011;46188;52.324;8.032;2022-08-19T05:07:20;7.35;;;5.57;;
60344;SDS011;46188;52.324;8.032;2022-08-19T05:09:46;10.13;;;5.72;;
60344;SDS011;46188;52.324;8.032;2022-08-19T05:12:11;7.65;;;6.47;;
60344;SDS011;46188;52.324;8.032;2022-08-19T05:14:37;8.60;;;5.90;;
60344;SDS011;46188;52.324;8.032;2022-08-19T05:17:02;6.60;;;5.88;;
60344;SDS011;46188;52.324;8.032;2022-08-19T05:19:28;7.57;;;6.38;;
60344;SDS011;46188;52.324;8.032;2022-08-19T05:22:12;7.88;;;5.40;;
60344;SDS011;46188;52.324;8.032;2022-08-19T05:24:56;9.98;;;7.15;;
60344;SDS011;46188;52.324;8.032;2022-08-19T05:27:22;7.50;;;6.10;;
60344;SDS011;46188;52.324;8.032;2022-08-19T05:29:47;8.98;;;6.25;;
60344;SDS011;46188;52.324;8.032;2022-08-19T05:32:12;12.80;;;7.78;;
60344;SDS011;46188;52.324;8.032;2022-08-19T05:34:38;10.05;;;7.57;;
60344;SDS011;46188;52.324;8.032;2022-08-19T05:37:04;11.63;;;6.95;;
60344;SDS011;46188;52.324;8.032;2022-08-19T05:39:32;11.52;;;7.40;;
60344;SDS011;46188;52.324;8.032;2022-08-19T05:42:00;16.15;;;8.02;;
60344;SDS011;46188;52.324;8.032;2022-08-19T05:44:29;14.13;;;8.27;;
60344;SDS011;46188;52.324;8.032;2022-08-19T05:46:56;13.65;;;8.20;;
60344;SDS011;46188;52.324;8.032;2022-08-19T05:49:23;13.35;;;8.50;;
60344;SDS011;46188;52.324;8.032;2022-08-19T05:51:50;11.65;;;6.72;;
60344;SDS011;46188;52.324;8.032;2022-08-19T05:54:17;11.80;;;8.38;;
60344;SDS011;46188;52.324;8.032;2022-08-19T05:56:44;13.98;;;8.77;;
60344;SDS011;46188;52.324;8.032;2022-08-19T05:59:12;14.50;;;9.05;;
60344;SDS011;46188;52.324;8.032;2022-08-19T06:01:40;14.48;;;9.98;;
60344;SDS011;46188;52.324;8.032;2022-08-19T06:04:07;14.63;;;10.63;;
60344;SDS011;46188;52.324;8.032;2022-08-19T06:06:33;11.60;;;9.50;;
60344;SDS011;46188;52.324;8.032;2022-08-19T06:09:04;15.30;;;9.98;;
60344;SDS011;46188;52.324;8.032;2022-08-19T06:13:59;16.17;;;8.70;;
60344;SDS011;46188;52.324;8.032;2022-08-19T06:16:29;13.85;;;7.68;;
60344;SDS011;46188;52.324;8.032;2022-08-19T06:18:59;13.25;;;8.35;;
60344;SDS011;46188;52.324;8.032;2022-08-19T06:21:28;9.63;;;7.15;;
60344;SDS011;46188;52.324;8.032;2022-08-19T06:23:55;8.85;;;6.80;;
60344;SDS011;46188;52.324;8.032;2022-08-19T06:26:21;10.10;;;6.15;;
60344;SDS011;46188;52.324;8.032;2022-08-19T06:28:48;9.15;;;7.65;;
60344;SDS011;46188;52.324;8.032;2022-08-19T06:31:14;8.25;;;6.82;;
60344;SDS011;46188;52.324;8.032;2022-08-19T06:33:41;10.10;;;6.22;;
60344;SDS011;46188;52.324;8.032;2022-08-19T06:36:15;8.43;;;5.57;;
60344;SDS011;46188;52.324;8.032;2022-08-19T06:38:44;10.00;;;6.75;;
60344;SDS011;46188;52.324;8.032;2022-08-19T06:41:10;11.13;;;7.10;;
60344;SDS011;46188;52.324;8.032;2022-08-19T06:43:36;9.52;;;6.00;;
60344;SDS011;46188;52.324;8.032;2022-08-19T06:46:01;7.70;;;6.53;;
60344;SDS011;46188;52.324;8.032;2022-08-19T06:48:28;9.90;;;6.68;;
60344;SDS011;46188;52.324;8.032;2022-08-19T06:50:54;11.57;;;7.68;;
60344;SDS011;46188;52.324;8.032;2022-08-19T06:53:20;9.65;;;6.07;;
60344;SDS011;46188;52.324;8.032;2022-08-19T06:55:46;11.32;;;6.45;;
60344;SDS011;46188;52.324;8.032;2022-08-19T06:58:12;9.57;;;6.57;;
60344;SDS011;46188;52.324;8.032;2022-08-19T07:00:37;7.90;;;5.75;;
60344;SDS011;46188;52.324;8.032;2022-08-19T07:03:03;6.72;;;5.35;;
60344;SDS011;46188;52.324;8.032;2022-08-19T07:05:28;7.65;;;5.85;;
60344;SDS011;46188;52.324;8.032;2022-08-19T07:07:54;5.63;;;4.75;;
60344;SDS011;46188;52.324;8.032;2022-08-19T07:10:19;6.65;;;5.95;;
60344;SDS011;46188;52.324;8.032;2022-08-19T07:12:44;6.30;;;4.68;;
60344;SDS011;46188;52.324;8.032;2022-08-19T07:15:10;7.68;;;4.82;;
60344;SDS011;46188;52.324;8.032;2022-08-19T07:17:37;5.50;;;4.13;;
60344;SDS011;46188;52.324;8.032;2022-08-19T07:20:04;7.90;;;4.28;;
60344;SDS011;46188;52.324;8.032;2022-08-19T07:22:32;5.43;;;4.88;;
60344;SDS011;46188;52.324;8.032;2022-08-19T07:24:59;6.05;;;4.70;;
60344;SDS011;46188;52.324;8.032;2022-08-19T07:27:25;5.80;;;5.13;;
60344;SDS011;46188;52.324;8.032;2022-08-19T07:29:51;6.82;;;4.43;;
60344;SDS011;46188;52.324;8.032;2022-08-19T07:32:18;5.05;;;4.55;;
60344;SDS011;46188;52.324;8.032;2022-08-19T07:34:43;4.78;;;4.13;;
60344;SDS011;46188;52.324;8.032;2022-08-19T07:37:10;4.78;;;3.80;;
60344;SDS011;46188;52.324;8.032;2022-08-19T07:39:36;4.40;;;3.58;;
60344;SDS011;46188;52.324;8.032;2022-08-19T07:42:08;3.78;;;3.35;;
60344;SDS011;46188;52.324;8.032;2022-08-19T07:44:35;4.30;;;3.47;;
60344;SDS011;46188;52.324;8.032;2022-08-19T07:47:03;4.78;;;3.25;;
60344;SDS011;46188;52.324;8.032;2022-08-19T07:49:29;4.47;;;3.47;;
60344;SDS011;46188;52.324;8.032;2022-08-19T07:54:21;3.97;;;3.17;;
60344;SDS011;46188;52.324;8.032;2022-08-19T07:56:47;3.22;;;2.85;;
60344;SDS011;46188;52.324;8.032;2022-08-19T07:59:15;4.18;;;3.40;;
60344;SDS011;46188;52.324;8.032;2022-08-19T08:01:42;4.15;;;3.00;;
60344;SDS011;46188;52.324;8.032;2022-08-19T08:04:08;3.25;;;2.95;;
60344;SDS011;46188;52.324;8.032;2022-08-19T08:06:53;3.72;;;2.90;;
60344;SDS011;46188;52.324;8.032;2022-08-19T08:09:38;3.60;;;2.50;;
60344;SDS011;46188;52.324;8.032;2022-08-19T08:12:07;3.67;;;2.53;;
60344;SDS011;46188;52.324;8.032;2022-08-19T08:14:41;4.13;;;2.45;;
60344;SDS011;46188;52.324;8.032;2022-08-19T08:17:09;3.20;;;2.90;;
60344;SDS011;46188;52.324;8.032;2022-08-19T08:19:36;2.72;;;2.35;;
60344;SDS011;46188;52.324;8.032;2022-08-19T08:22:02;2.65;;;2.15;;
60344;SDS011;46188;52.324;8.032;2022-08-19T08:24:31;3.70;;;1.90;;
60344;SDS011;46188;52.324;8.032;2022-08-19T08:26:58;3.92;;;2.22;;
60344;SDS011;46188;52.324;8.032;2022-08-19T08:29:28;2.33;;;2.10;;
60344;SDS011;46188;52.324;8.032;2022-08-19T08:31:54;3.13;;;2.25;;
60344;SDS011;46188;52.324;8.032;2022-08-19T08:34:21;4.05;;;2.65;;
60344;SDS011;46188;52.324;8.032;2022-08-19T08:36:47;3.08;;;2.75;;
60344;SDS011;46188;52.324;8.032;2022-08-19T08:39:14;2.95;;;2.20;;
60344;SDS011;46188;52.324;8.032;2022-08-19T08:42:00;2.08;;;1.80;;
60344;SDS011;46188;52.324;8.032;2022-08-19T08:44:47;3.85;;;1.70;;
60344;SDS011;46188;52.324;8.032;2022-08-19T08:47:15;1.67;;;1.52;;
60344;SDS011;46188;52.324;8.032;2022-08-19T08:49:45;2.58;;;1.88;;
60344;SDS011;46188;52.324;8.032;2022-08-19T08:52:25;3.60;;;1.92;;
60344;SDS011;46188;52.324;8.032;2022-08-19T08:54:54;2.22;;;1.77;;
60344;SDS011;46188;52.324;8.032;2022-08-19T08:57:30;2.30;;;2.10;;
60344;SDS011;46188;52.324;8.032;2022-08-19T09:00:22;3.42;;;2.00;;
60344;SDS011;46188;52.324;8.032;2022-08-19T09:02:55;2.72;;;1.92;;
60344;SDS011;46188;52.324;8.032;2022-08-19T09:05:23;2.20;;;1.80;;
60344;SDS011;46188;52.324;8.032;2022-08-19T09:08:05;2.10;;;1.85;;
60344;SDS011;46188;52.324;8.032;2022-08-19T09:10:44;2.08;;;1.52;;
60344;SDS011;46188;52.324;8.032;2022-08-19T09:13:34;2.75;;;1.92;;
60344;SDS011;46188;52.324;8.032;2022-08-19T09:16:18;4.45;;;2.00;;
60344;SDS011;46188;52.324;8.032;2022-08-19T09:18:50;3.00;;;2.13;;
60344;SDS011;46188;52.324;8.032;2022-08-19T09:21:19;4.15;;;2.50;;
60344;SDS011;46188;52.324;8.032;2022-08-19T09:23:48;2.60;;;2.40;;
60344;SDS011;46188;52.324;8.032;2022-08-19T09:26:17;2.33;;;2.00;;
60344;SDS011;46188;52.324;8.032;2022-08-19T09:28:45;2.60;;;2.25;;
60344;SDS011;46188;52.324;8.032;2022-08-19T09:31:22;2.83;;;1.80;;
60344;SDS011;46188;52.324;8.032;2022-08-19T09:33:50;2.15;;;1.77;;
60344;SDS011;46188;52.324;8.032;2022-08-19T09:36:18;2.53;;;2.00;;
60344;SDS011;46188;52.324;8.032;2022-08-19T09:38:45;2.60;;;2.35;;
60344;SDS011;46188;52.324;8.032;2022-08-19T09:41:15;2.15;;;1.95;;
60344;SDS011;46188;52.324;8.032;2022-08-19T09:43:43;2.40;;;1.83;;
60344;SDS011;46188;52.324;8.032;2022-08-19T09:46:10;2.22;;;1.90;;
60344;SDS011;46188;52.324;8.032;2022-08-19T09:48:37;2.53;;;2.15;;
60344;SDS011;46188;52.324;8.032;2022-08-19T09:51:10;3.08;;;2.20;;
60344;SDS011;46188;52.324;8.032;2022-08-19T09:53:40;2.17;;;1.90;;
60344;SDS011;46188;52.324;8.032;2022-08-19T09:56:06;2.50;;;2.22;;
60344;SDS011;46188;52.324;8.032;2022-08-19T09:58:32;3.10;;;2.67;;
60344;SDS011;46188;52.324;8.032;2022-08-19T10:00:59;3.17;;;2.22;;
60344;SDS011;46188;52.324;8.032;2022-08-19T10:03:26;2.40;;;1.85;;
60344;SDS011;46188;52.324;8.032;2022-08-19T10:05:53;3.75;;;2.33;;
60344;SDS011;46188;52.324;8.032;2022-08-19T10:08:24;3.47;;;2.70;;
60344;SDS011;46188;52.324;8.032;2022-08-19T10:10:55;2.50;;;2.13;;
60344;SDS011;46188;52.324;8.032;2022-08-19T10:13:22;3.15;;;1.95;;
60344;SDS011;46188;52.324;8.032;2022-08-19T10:15:50;3.72;;;2.53;;
60344;SDS011;46188;52.324;8.032;2022-08-19T10:18:19;3.15;;;2.67;;
60344;SDS011;46188;52.324;8.032;2022-08-19T10:20:46;2.38;;;2.17;;
60344;SDS011;46188;52.324;8.032;2022-08-19T10:23:13;3.28;;;2.22;;
60344;SDS011;46188;52.324;8.032;2022-08-19T10:25:40;2.50;;;2.10;;
60344;SDS011;46188;52.324;8.032;2022-08-19T10:28:06;4.28;;;1.80;;
60344;SDS011;46188;52.324;8.032;2022-08-19T10:30:32;6.93;;;2.13;;
60344;SDS011;46188;52.324;8.032;2022-08-19T10:32:58;2.35;;;1.88;;
60344;SDS011;46188;52.324;8.032;2022-08-19T10:35:24;4.00;;;2.10;;
60344;SDS011;46188;52.324;8.032;2022-08-19T10:37:54;2.72;;;2.10;;
60344;SDS011;46188;52.324;8.032;2022-08-19T10:40:24;3.10;;;2.03;;
60344;SDS011;46188;52.324;8.032;2022-08-19T10:42:50;2.78;;;2.42;;
60344;SDS011;46188;52.324;8.032;2022-08-19T10:45:15;3.75;;;2.20;;
60344;SDS011;46188;52.324;8.032;2022-08-19T10:47:41;5.32;;;2.38;;
60344;SDS011;46188;52.324;8.032;2022-08-19T10:50:07;1.98;;;1.75;;
60344;SDS011;46188;52.324;8.032;2022-08-19T10:52:51;3.17;;;2.00;;
60344;SDS011;46188;52.324;8.032;2022-08-19T10:55:21;3.28;;;2.10;;
60344;SDS011;46188;52.324;8.032;2022-08-19T10:58:14;3.22;;;2.45;;
60344;SDS011;46188;52.324;8.032;2022-08-19T11:00:42;2.75;;;2.10;;
60344;SDS011;46188;52.324;8.032;2022-08-19T11:03:08;2.03;;;1.83;;
60344;SDS011;46188;52.324;8.032;2022-08-19T11:05:34;1.85;;;1.63;;
60344;SDS011;46188;52.324;8.032;2022-08-19T11:07:59;2.53;;;1.95;;
60344;SDS011;46188;52.324;8.032;2022-08-19T11:10:25;4.82;;;2.38;;
60344;SDS011;46188;52.324;8.032;2022-08-19T11:12:50;2.05;;;1.73;;
60344;SDS011;46188;52.324;8.032;2022-08-19T11:15:19;3.03;;;2.00;;
60344;SDS011;46188;52.324;8.032;2022-08-19T11:17:44;2.83;;;1.92;;
60344;SDS011;46188;52.324;8.032;2022-08-19T11:20:11;2.67;;;1.92;;
60344;SDS011;46188;52.324;8.032;2022-08-19T11:22:38;2.10;;;1.80;;
60344;SDS011;46188;52.324;8.032;2022-08-19T11:25:05;2.88;;;2.30;;
60344;SDS011;46188;52.324;8.032;2022-08-19T11:27:31;2.15;;;1.95;;
60344;SDS011;46188;52.324;8.032;2022-08-19T11:29:57;2.53;;;2.13;;
60344;SDS011;46188;52.324;8.032;2022-08-19T11:32:22;2.35;;;1.88;;
60344;SDS011;46188;52.324;8.032;2022-08-19T11:34:47;2.90;;;2.42;;
60344;SDS011;46188;52.324;8.032;2022-08-19T11:37:13;2.83;;;2.50;;
60344;SDS011;46188;52.324;8.032;2022-08-19T11:39:39;2.33;;;2.13;;
60344;SDS011;46188;52.324;8.032;2022-08-19T11:42:06;2.30;;;2.10;;
60344;SDS011;46188;52.324;8.032;2022-08-19T11:44:52;2.92;;;2.42;;
60344;SDS011;46188;52.324;8.032;2022-08-19T11:47:18;2.65;;;1.90;;
60344;SDS011;46188;52.324;8.032;2022-08-19T11:49:45;2.65;;;2.00;;
60344;SDS011;46188;52.324;8.032;2022-08-19T11:52:11;2.28;;;1.80;;
60344;SDS011;46188;52.324;8.032;2022-08-19T11:54:37;2.72;;;2.30;;
60344;SDS011;46188;52.324;8.032;2022-08-19T11:57:03;2.60;;;2.03;;
60344;SDS011;46188;52.324;8.032;2022-08-19T11:59:28;2.30;;;1.92;;
60344;SDS011;46188;52.324;8.032;2022-08-19T12:01:54;2.35;;;1.98;;
60344;SDS011;46188;52.324;8.032;2022-08-19T12:04:21;2.30;;;2.10;;
60344;SDS011;46188;52.324;8.032;2022-08-19T12:06:47;2.30;;;2.10;;
60344;SDS011;46188;52.324;8.032;2022-08-19T12:09:12;2.85;;;2.35;;
60344;SDS011;46188;52.324;8.032;2022-08-19T12:11:39;2.40;;;2.10;;
60344;SDS011;46188;52.324;8.032;2022-08-19T12:14:05;2.33;;;1.80;;
60344;SDS011;46188;52.324;8.032;2022-08-19T12:16:34;2.80;;;2.50;;
60344;SDS011;46188;52.324;8.032;2022-08-19T12:19:00;3.45;;;1.88;;
60344;SDS011;46188;52.324;8.032;2022-08-19T12:21:29;2.30;;;1.65;;
60344;SDS011;46188;52.324;8.032;2022-08-19T12:23:56;3.92;;;2.10;;
60344;SDS011;46188;52.324;8.032;2022-08-19T12:26:23;2.10;;;1.90;;
60344;SDS011;46188;52.324;8.032;2022-08-19T12:28:50;2.75;;;2.00;;
60344;SDS011;46188;52.324;8.032;2022-08-19T12:31:15;2.17;;;1.98;;
60344;SDS011;46188;52.324;8.032;2022-08-19T12:33:41;3.22;;;2.28;;
60344;SDS011;46188;52.324;8.032;2022-08-19T12:36:08;2.40;;;1.73;;
60344;SDS011;46188;52.324;8.032;2022-08-19T12:38:36;2.85;;;1.70;;
60344;SDS011;46188;52.324;8.032;2022-08-19T12:41:03;2.50;;;2.13;;
60344;SDS011;46188;52.324;8.032;2022-08-19T12:43:30;3.90;;;2.22;;
60344;SDS011;46188;52.324;8.032;2022-08-19T12:45:55;2.15;;;1.90;;
60344;SDS011;46188;52.324;8.032;2022-08-19T12:48:21;4.00;;;2.42;;
60344;SDS011;46188;52.324;8.032;2022-08-19T12:50:46;2.63;;;2.15;;
60344;SDS011;46188;52.324;8.032;2022-08-19T12:53:12;3.25;;;1.92;;
60344;SDS011;46188;52.324;8.032;2022-08-19T12:55:38;2.55;;;2.10;;
60344;SDS011;46188;52.324;8.032;2022-08-19T12:58:04;2.85;;;2.30;;
60344;SDS011;46188;52.324;8.032;2022-08-19T13:00:29;2.70;;;2.00;;
60344;SDS011;46188;52.324;8.032;2022-08-19T13:02:57;2.47;;;2.00;;
60344;SDS011;46188;52.324;8.032;2022-08-19T13:05:25;2.00;;;1.80;;
60344;SDS011;46188;52.324;8.032;2022-08-19T13:07:54;2.10;;;1.90;;
60344;SDS011;46188;52.324;8.032;2022-08-19T13:10:22;2.20;;;2.00;;
60344;SDS011;46188;52.324;8.032;2022-08-19T13:12:50;4.13;;;1.90;;
60344;SDS011;46188;52.324;8.032;2022-08-19T13:15:17;2.72;;;2.08;;
60344;SDS011;46188;52.324;8.032;2022-08-19T13:17:45;2.20;;;1.92;;
60344;SDS011;46188;52.324;8.032;2022-08-19T13:20:16;2.25;;;1.92;;
60344;SDS011;46188;52.324;8.032;2022-08-19T13:22:43;2.35;;;1.75;;
60344;SDS011;46188;52.324;8.032;2022-08-19T13:25:10;2.30;;;1.75;;
60344;SDS011;46188;52.324;8.032;2022-08-19T13:27:36;3.03;;;1.80;;
60344;SDS011;46188;52.324;8.032;2022-08-19T13:30:02;2.30;;;2.10;;
60344;SDS011;46188;52.324;8.032;2022-08-19T13:32:47;4.13;;;1.67;;
60344;SDS011;46188;52.324;8.032;2022-08-19T13:35:31;2.05;;;1.80;;
60344;SDS011;46188;52.324;8.032;2022-08-19T13:37:57;3.17;;;2.10;;
60344;SDS011;46188;52.324;8.032;2022-08-19T13:40:23;3.00;;;2.28;;
60344;SDS011;46188;52.324;8.032;2022-08-19T13:42:52;2.22;;;2.03;;
60344;SDS011;46188;52.324;8.032;2022-08-19T13:45:20;2.47;;;1.90;;
60344;SDS011;46188;52.324;8.032;2022-08-19T13:47:49;2.13;;;1.92;;
60344;SDS011;46188;52.324;8.032;2022-08-19T13:50:18;4.20;;;2.20;;
60344;SDS011;46188;52.324;8.032;2022-08-19T13:52:45;2.40;;;2.20;;
60344;SDS011;46188;52.324;8.032;2022-08-19T13:55:12;3.45;;;2.13;;
60344;SDS011;46188;52.324;8.032;2022-08-19T13:57:38;2.92;;;2.08;;
60344;SDS011;46188;52.324;8.032;2022-08-19T14:00:16;2.70;;;2.00;;
60344;SDS011;46188;52.324;8.032;2022-08-19T14:02:43;3.42;;;2.13;;
60344;SDS011;46188;52.324;8.032;2022-08-19T14:05:11;3.58;;;2.03;;
60344;SDS011;46188;52.324;8.032;2022-08-19T14:07:38;2.00;;;1.70;;
60344;SDS011;46188;52.324;8.032;2022-08-19T14:10:04;2.40;;;2.20;;
60344;SDS011;46188;52.324;8.032;2022-08-19T14:12:31;2.50;;;2.30;;
60344;SDS011;46188;52.324;8.032;2022-08-19T14:14:57;3.47;;;2.33;;
60344;SDS011;46188;52.324;8.032;2022-08-19T14:17:23;2.47;;;2.28;;
60344;SDS011;46188;52.324;8.032;2022-08-19T14:19:50;2.40;;;2.00;;
60344;SDS011;46188;52.324;8.032;2022-08-19T14:22:21;2.28;;;1.80;;
60344;SDS011;46188;52.324;8.032;2022-08-19T14:24:46;4.35;;;1.75;;
60344;SDS011;46188;52.324;8.032;2022-08-19T14:27:13;2.53;;;1.98;;
60344;SDS011;46188;52.324;8.032;2022-08-19T14:29:39;2.92;;;2.00;;
60344;SDS011;46188;52.324;8.032;2022-08-19T14:32:05;2.20;;;1.88;;
60344;SDS011;46188;52.324;8.032;2022-08-19T14:34:30;3.15;;;2.03;;
60344;SDS011;46188;52.324;8.032;2022-08-19T14:36:56;2.22;;;2.00;;
60344;SDS011;46188;52.324;8.032;2022-08-19T14:39:22;2.65;;;2.45;;
60344;SDS011;46188;52.324;8.032;2022-08-19T14:41:47;3.03;;;2.33;;
60344;SDS011;46188;52.324;8.032;2022-08-19T14:44:13;2.53;;;2.33;;
60344;SDS011;46188;52.324;8.032;2022-08-19T14:46:38;3.08;;;2.55;;
60344;SDS011;46188;52.324;8.032;2022-08-19T14:49:05;3.03;;;2.25;;
60344;SDS011;46188;52.324;8.032;2022-08-19T14:51:31;2.95;;;2.47;;
60344;SDS011;46188;52.324;8.032;2022-08-19T14:53:57;2.75;;;2.25;;
60344;SDS011;46188;52.324;8.032;2022-08-19T14:56:27;3.63;;;2.58;;
60344;SDS011;46188;52.324;8.032;2022-08-19T14:58:54;2.65;;;2.38;;